createdAt,value
2018-12-21T00:00:21.964Z,7.80
2018-12-21T00:02:50.070Z,7.80
2018-12-21T00:05:18.274Z,7.70
2018-12-21T00:07:46.541Z,7.70
2018-12-21T00:10:14.717Z,7.70
2018-12-21T00:12:42.874Z,7.70
2018-12-21T00:15:11.041Z,7.60
2018-12-21T00:17:39.195Z,7.70
2018-12-21T00:20:09.191Z,7.70
2018-12-21T00:22:37.370Z,7.80
2018-12-21T00:25:06.153Z,7.70
2018-12-21T00:27:34.313Z,7.80
2018-12-21T00:30:03.123Z,7.80
2018-12-21T00:32:36.584Z,7.80
2018-12-21T00:35:10.313Z,7.70
2018-12-21T00:37:44.085Z,7.70
2018-12-21T00:40:17.783Z,7.70
2018-12-21T00:42:50.220Z,7.70
2018-12-21T00:45:22.640Z,7.70
2018-12-21T00:47:50.844Z,7.60
2018-12-21T00:50:19.098Z,7.70
2018-12-21T00:52:47.260Z,7.70
2018-12-21T00:55:15.469Z,7.70
2018-12-21T00:57:43.666Z,7.70
2018-12-21T01:00:14.241Z,7.70
2018-12-21T01:02:42.403Z,7.60
2018-12-21T01:05:10.629Z,7.60
2018-12-21T01:07:38.835Z,7.60
2018-12-21T01:10:08.682Z,7.60
2018-12-21T01:12:36.920Z,7.60
2018-12-21T01:15:05.366Z,7.60
2018-12-21T01:17:33.778Z,7.70
2018-12-21T01:20:02.000Z,7.70
2018-12-21T01:22:30.106Z,7.60
2018-12-21T01:24:58.327Z,7.70
2018-12-21T01:27:26.580Z,7.60
2018-12-21T01:29:54.739Z,7.70
2018-12-21T01:32:22.917Z,7.70
2018-12-21T01:34:50.993Z,7.70
2018-12-21T01:37:19.100Z,7.70
2018-12-21T01:39:47.194Z,7.70
2018-12-21T01:42:15.315Z,7.70
2018-12-21T01:44:43.505Z,7.70
2018-12-21T01:47:11.742Z,7.70
2018-12-21T01:49:39.910Z,7.70
2018-12-21T01:52:08.139Z,7.70
2018-12-21T01:54:36.238Z,7.70
2018-12-21T01:57:04.453Z,7.70
2018-12-21T01:59:32.624Z,7.70
2018-12-21T02:02:00.798Z,7.70
2018-12-21T02:04:28.911Z,7.70
2018-12-21T02:06:57.071Z,7.70
2018-12-21T02:09:25.229Z,7.80
2018-12-21T02:11:53.441Z,7.80
2018-12-21T02:14:21.554Z,7.80
2018-12-21T02:16:49.695Z,7.70
2018-12-21T02:19:17.930Z,7.70
2018-12-21T02:21:46.147Z,7.70
2018-12-21T02:24:14.250Z,7.60
2018-12-21T02:26:42.407Z,7.60
2018-12-21T02:29:10.564Z,7.50
2018-12-21T02:31:38.661Z,7.60
2018-12-21T02:34:07.046Z,7.60
2018-12-21T02:36:35.142Z,7.60
2018-12-21T02:39:04.915Z,7.70
2018-12-21T02:41:33.209Z,7.70
2018-12-21T02:44:01.477Z,7.70
2018-12-21T02:46:29.616Z,7.70
2018-12-21T02:48:57.796Z,7.70
2018-12-21T02:51:26.019Z,7.70
2018-12-21T02:53:54.249Z,7.70
2018-12-21T02:56:22.403Z,7.80
2018-12-21T02:58:50.562Z,7.90
2018-12-21T03:01:18.656Z,7.80
2018-12-21T03:03:46.744Z,7.80
2018-12-21T03:06:15.012Z,7.90
2018-12-21T03:08:43.187Z,7.90
2018-12-21T03:11:11.320Z,7.90
2018-12-21T03:13:39.437Z,7.90
2018-12-21T03:16:07.615Z,7.90
2018-12-21T03:18:35.786Z,7.90
2018-12-21T03:21:03.997Z,7.90
2018-12-21T03:23:32.162Z,7.90
2018-12-21T03:26:00.255Z,7.90
2018-12-21T03:28:28.504Z,7.80
2018-12-21T03:30:56.611Z,7.90
2018-12-21T03:33:24.756Z,7.90
2018-12-21T03:35:53.019Z,7.80
2018-12-21T03:38:21.235Z,7.90
2018-12-21T03:40:49.406Z,7.90
2018-12-21T03:43:17.501Z,7.90
2018-12-21T03:45:45.593Z,7.90
2018-12-21T03:48:13.798Z,8.00
2018-12-21T03:50:41.961Z,8.00
2018-12-21T03:53:10.131Z,8.00
2018-12-21T03:55:38.208Z,8.00
2018-12-21T03:58:06.363Z,8.00
2018-12-21T04:00:34.518Z,7.90
2018-12-21T04:03:02.667Z,8.00
2018-12-21T04:05:30.754Z,8.00
2018-12-21T04:07:58.948Z,8.00
2018-12-21T04:10:27.160Z,8.00
2018-12-21T04:12:55.276Z,8.00
2018-12-21T04:15:23.497Z,8.00
2018-12-21T04:17:51.598Z,8.10
2018-12-21T04:20:19.828Z,8.10
2018-12-21T04:22:47.947Z,8.00
2018-12-21T04:25:16.045Z,8.00
2018-12-21T04:27:44.144Z,8.10
2018-12-21T04:30:12.383Z,8.10
2018-12-21T04:32:40.600Z,8.10
2018-12-21T04:35:08.709Z,8.20
2018-12-21T04:37:36.817Z,8.20
2018-12-21T04:40:05.560Z,8.20
2018-12-21T04:42:33.730Z,8.20
2018-12-21T04:45:01.906Z,8.10
2018-12-21T04:47:30.151Z,8.20
2018-12-21T04:49:58.316Z,8.20
2018-12-21T04:52:26.563Z,8.20
2018-12-21T04:54:54.667Z,8.20
2018-12-21T04:57:22.990Z,8.20
2018-12-21T04:59:51.106Z,8.20
2018-12-21T05:02:19.259Z,8.30
2018-12-21T05:04:47.357Z,8.30
2018-12-21T05:07:15.514Z,8.20
2018-12-21T05:09:43.677Z,8.20
2018-12-21T05:12:11.947Z,8.30
2018-12-21T05:14:40.290Z,8.20
2018-12-21T05:17:08.377Z,8.20
2018-12-21T05:19:36.550Z,8.20
2018-12-21T05:22:04.782Z,8.30
2018-12-21T05:24:33.026Z,8.20
2018-12-21T05:27:01.197Z,8.20
2018-12-21T05:29:29.343Z,8.20
2018-12-21T05:31:57.514Z,8.20
2018-12-21T05:34:25.658Z,8.20
2018-12-21T05:36:53.784Z,8.20
2018-12-21T05:39:21.934Z,8.20
2018-12-21T05:41:50.048Z,8.30
2018-12-21T05:44:18.263Z,8.30
2018-12-21T05:46:46.472Z,8.30
2018-12-21T05:49:14.627Z,8.30
2018-12-21T05:51:42.927Z,8.30
2018-12-21T05:54:11.080Z,8.30
2018-12-21T05:56:39.257Z,8.40
2018-12-21T05:59:07.348Z,8.40
2018-12-21T06:01:35.521Z,8.40
2018-12-21T06:04:03.681Z,8.40
2018-12-21T06:06:31.853Z,8.40
2018-12-21T06:09:00.014Z,8.40
2018-12-21T06:11:28.160Z,8.40
2018-12-21T06:13:56.314Z,8.50
2018-12-21T06:16:24.744Z,8.50
2018-12-21T06:18:52.844Z,8.50
2018-12-21T06:21:20.970Z,8.50
2018-12-21T06:23:49.162Z,8.50
2018-12-21T06:26:17.317Z,8.60
2018-12-21T06:28:45.502Z,8.60
2018-12-21T06:31:13.661Z,8.80
2018-12-21T06:33:41.763Z,8.80
2018-12-21T06:36:09.871Z,8.80
2018-12-21T06:38:37.956Z,8.80
2018-12-21T06:41:06.118Z,8.90
2018-12-21T06:43:34.279Z,9.00
2018-12-21T06:46:14.122Z,9.00
2018-12-21T06:48:39.043Z,9.00
2018-12-21T06:51:07.286Z,9.00
2018-12-21T06:53:35.458Z,9.00
2018-12-21T06:56:03.673Z,8.90
2018-12-21T06:58:31.902Z,9.00
2018-12-21T07:01:00.797Z,9.00
2018-12-21T07:03:28.973Z,8.90
2018-12-21T07:05:57.073Z,9.00
2018-12-21T07:08:25.252Z,8.90
2018-12-21T07:10:53.520Z,8.80
2018-12-21T07:13:21.673Z,8.80
2018-12-21T07:15:49.814Z,8.70
2018-12-21T07:18:17.953Z,8.60
2018-12-21T07:20:46.154Z,8.60
2018-12-21T07:23:14.368Z,8.50
2018-12-21T07:25:42.523Z,8.50
2018-12-21T07:28:10.739Z,8.50
2018-12-21T07:30:38.894Z,8.60
2018-12-21T07:33:06.998Z,8.60
2018-12-21T07:35:35.173Z,8.60
2018-12-21T07:38:03.347Z,8.60
2018-12-21T07:40:31.511Z,8.60
2018-12-21T07:42:59.677Z,8.60
2018-12-21T07:45:27.844Z,8.60
2018-12-21T07:47:56.157Z,8.60
2018-12-21T07:50:24.302Z,8.70
2018-12-21T07:52:53.379Z,8.70
2018-12-21T07:55:21.740Z,8.70
2018-12-21T07:57:49.841Z,8.80
2018-12-21T08:00:17.918Z,8.80
2018-12-21T08:02:46.008Z,8.90
2018-12-21T08:05:14.164Z,9.00
2018-12-21T08:07:42.267Z,9.00
2018-12-21T08:10:13.858Z,9.00
2018-12-21T08:12:42.029Z,9.00
2018-12-21T08:15:10.275Z,9.00
2018-12-21T08:17:38.439Z,9.20
2018-12-21T08:20:07.770Z,9.30
2018-12-21T08:22:35.870Z,9.30
2018-12-21T08:25:04.446Z,9.30
2018-12-21T08:27:32.679Z,9.40
2018-12-21T08:30:01.495Z,9.50
2018-12-21T08:32:29.592Z,9.50
2018-12-21T08:34:57.763Z,9.60
2018-12-21T08:37:26.057Z,9.60
2018-12-21T08:39:54.138Z,9.60
2018-12-21T08:42:22.294Z,9.50
2018-12-21T08:44:50.524Z,9.50
2018-12-21T08:47:18.712Z,9.50
2018-12-21T08:49:46.906Z,9.40
2018-12-21T08:52:14.985Z,9.40
2018-12-21T08:54:43.086Z,9.40
2018-12-21T08:57:11.177Z,9.30
2018-12-21T08:59:39.260Z,9.30
2018-12-21T09:02:07.122Z,9.30
2018-12-21T09:04:35.289Z,9.30
2018-12-21T09:07:03.500Z,9.30
2018-12-21T09:09:31.570Z,9.30
2018-12-21T09:11:59.704Z,9.20
2018-12-21T09:14:27.849Z,9.40
2018-12-21T09:16:56.058Z,9.30
2018-12-21T09:19:24.267Z,9.20
2018-12-21T09:21:52.353Z,9.10
2018-12-21T09:24:20.458Z,9.00
2018-12-21T09:26:48.670Z,8.90
2018-12-21T09:29:16.758Z,8.80
2018-12-21T09:31:44.898Z,8.80
2018-12-21T09:34:13.622Z,8.90
2018-12-21T09:36:42.944Z,8.90
2018-12-21T09:39:11.393Z,8.80
2018-12-21T09:41:39.499Z,8.70
2018-12-21T09:44:07.674Z,8.80
2018-12-21T09:46:35.775Z,8.90
2018-12-21T09:49:03.992Z,8.70
2018-12-21T09:51:32.104Z,8.60
2018-12-21T09:54:00.216Z,8.60
2018-12-21T09:56:28.363Z,8.50
2018-12-21T09:58:56.504Z,8.60
2018-12-21T10:01:24.706Z,8.50
2018-12-21T10:03:53.801Z,8.60
2018-12-21T10:06:21.901Z,8.70
2018-12-21T10:08:50.064Z,8.70
2018-12-21T10:11:18.218Z,8.70
2018-12-21T10:13:46.361Z,8.80
2018-12-21T10:16:14.531Z,8.90
2018-12-21T10:18:42.676Z,9.00
2018-12-21T10:21:10.761Z,9.00
2018-12-21T10:23:38.990Z,9.20
2018-12-21T10:26:07.142Z,9.10
2018-12-21T10:28:35.231Z,9.10
2018-12-21T10:31:03.372Z,9.10
2018-12-21T10:33:31.470Z,8.90
2018-12-21T10:35:59.678Z,8.90
2018-12-21T10:38:27.808Z,8.90
2018-12-21T10:40:56.015Z,8.80
2018-12-21T10:43:24.212Z,8.80
2018-12-21T10:45:52.375Z,8.80
2018-12-21T10:48:20.536Z,8.80
2018-12-21T10:50:48.771Z,8.70
2018-12-21T10:53:16.990Z,8.70
2018-12-21T10:55:46.251Z,8.70
2018-12-21T10:58:14.602Z,8.80
2018-12-21T11:00:42.751Z,8.70
2018-12-21T11:03:10.893Z,8.80
2018-12-21T11:05:39.053Z,8.70
2018-12-21T11:08:07.258Z,8.70
2018-12-21T11:10:35.375Z,8.80
2018-12-21T11:13:03.568Z,8.80
2018-12-21T11:15:31.707Z,8.80
2018-12-21T11:19:29.080Z,8.90
2018-12-21T11:21:57.315Z,8.90
2018-12-21T11:24:25.517Z,9.00
2018-12-21T11:26:53.681Z,9.00
2018-12-21T11:29:21.833Z,9.20
2018-12-21T11:31:50.046Z,9.30
2018-12-21T11:34:19.119Z,9.30
2018-12-21T11:36:47.266Z,9.20
2018-12-21T11:39:15.522Z,9.40
2018-12-21T11:41:43.723Z,9.40
2018-12-21T11:44:11.814Z,9.30
2018-12-21T11:46:40.316Z,9.30
2018-12-21T11:49:08.545Z,9.40
2018-12-21T11:51:36.649Z,9.50
2018-12-21T11:54:04.878Z,9.50
2018-12-21T11:56:33.025Z,9.60
2018-12-21T11:59:01.185Z,9.50
2018-12-21T12:01:29.267Z,9.60
2018-12-21T12:03:57.359Z,9.70
2018-12-21T12:06:25.517Z,9.90
2018-12-21T12:08:53.631Z,9.90
2018-12-21T12:11:21.725Z,10.10
2018-12-21T12:13:49.890Z,10.10
2018-12-21T12:16:18.109Z,10.10
2018-12-21T12:18:46.272Z,10.20
2018-12-21T12:21:14.454Z,10.30
2018-12-21T12:23:42.584Z,10.20
2018-12-21T12:26:10.804Z,10.20
2018-12-21T12:28:39.038Z,10.40
2018-12-21T12:31:07.286Z,10.40
2018-12-21T12:33:35.400Z,10.40
2018-12-21T12:36:03.660Z,10.50
2018-12-21T12:38:31.908Z,10.60
2018-12-21T12:41:06.556Z,10.40
2018-12-21T12:43:30.169Z,10.40
2018-12-21T12:45:58.297Z,10.30
2018-12-21T12:48:26.492Z,10.40
2018-12-21T12:50:54.758Z,10.40
2018-12-21T12:53:23.008Z,10.50
2018-12-21T12:55:51.197Z,10.40
2018-12-21T12:58:19.325Z,10.50
2018-12-21T13:00:47.569Z,10.50
2018-12-21T13:03:15.757Z,10.40
2018-12-21T13:05:43.929Z,10.20
2018-12-21T13:08:12.060Z,10.30
2018-12-21T13:10:40.338Z,10.10
2018-12-21T13:13:09.462Z,10.20
2018-12-21T13:15:37.721Z,10.20
2018-12-21T13:18:05.925Z,10.20
2018-12-21T13:20:34.044Z,10.20
2018-12-21T13:23:03.028Z,10.20
2018-12-21T13:25:31.138Z,10.20
2018-12-21T13:27:59.395Z,10.20
2018-12-21T13:30:27.626Z,10.30
2018-12-21T13:32:55.735Z,10.30
2018-12-21T13:35:23.928Z,10.30
2018-12-21T13:37:52.049Z,10.40
2018-12-21T13:40:20.491Z,10.40
2018-12-21T13:42:48.666Z,10.40
2018-12-21T13:45:16.766Z,10.40
2018-12-21T13:47:44.956Z,10.50
2018-12-21T13:50:14.632Z,10.50
2018-12-21T13:52:42.745Z,10.50
2018-12-21T13:55:11.026Z,10.50
2018-12-21T13:57:39.321Z,10.60
2018-12-21T14:00:09.445Z,10.60
2018-12-21T14:02:37.827Z,10.60
2018-12-21T14:05:07.226Z,10.60
2018-12-21T14:07:35.358Z,10.60
2018-12-21T14:10:05.642Z,10.60
2018-12-21T14:12:33.750Z,10.60
2018-12-21T14:15:01.937Z,10.70
2018-12-21T14:17:30.118Z,10.60
2018-12-21T14:19:58.228Z,10.80
2018-12-21T14:22:26.368Z,10.70
2018-12-21T14:24:54.476Z,10.80
2018-12-21T14:27:22.578Z,10.80
2018-12-21T14:29:50.696Z,10.80
2018-12-21T14:32:18.889Z,10.90
2018-12-21T14:34:47.003Z,10.90
2018-12-21T14:37:15.145Z,10.90
2018-12-21T14:39:43.328Z,10.90
2018-12-21T14:42:11.448Z,10.90
2018-12-21T14:44:39.561Z,10.90
2018-12-21T14:47:07.737Z,10.80
2018-12-21T14:49:35.844Z,10.70
2018-12-21T14:52:04.170Z,10.70
2018-12-21T14:54:32.346Z,10.70
2018-12-21T14:57:00.563Z,10.60
2018-12-21T14:59:28.798Z,10.70
2018-12-21T15:01:56.911Z,10.70
2018-12-21T15:04:25.125Z,10.70
2018-12-21T15:06:53.238Z,10.70
2018-12-21T15:09:21.585Z,10.80
2018-12-21T15:11:49.754Z,10.80
2018-12-21T15:14:17.923Z,10.80
2018-12-21T15:16:46.076Z,10.80
2018-12-21T15:19:14.261Z,10.90
2018-12-21T15:21:42.457Z,11.00
2018-12-21T15:24:10.583Z,11.00
2018-12-21T15:26:38.752Z,11.00
2018-12-21T15:29:06.912Z,11.10
2018-12-21T15:31:35.014Z,11.10
2018-12-21T15:34:03.167Z,11.10
2018-12-21T15:36:31.350Z,11.10
2018-12-21T15:38:59.598Z,11.20
2018-12-21T15:41:27.792Z,11.30
2018-12-21T15:43:55.955Z,11.30
2018-12-21T15:46:24.057Z,11.30
2018-12-21T15:48:52.216Z,11.30
2018-12-21T15:51:20.404Z,11.40
2018-12-21T15:53:48.572Z,11.40
2018-12-21T15:56:16.705Z,11.40
2018-12-21T15:58:44.880Z,11.50
2018-12-21T16:01:13.223Z,11.60
2018-12-21T16:03:41.453Z,11.70
2018-12-21T16:06:09.553Z,11.80
2018-12-21T16:08:37.794Z,11.80
2018-12-21T16:11:05.972Z,11.90
2018-12-21T16:13:34.208Z,11.90
2018-12-21T16:16:02.466Z,12.00
2018-12-21T16:18:30.563Z,12.00
2018-12-21T16:20:58.686Z,12.10
2018-12-21T16:23:26.804Z,12.10
2018-12-21T16:26:03.255Z,12.10
2018-12-21T16:28:25.005Z,12.10
2018-12-21T16:30:53.173Z,12.10
2018-12-21T16:33:21.332Z,12.10
2018-12-21T16:35:49.546Z,12.20
2018-12-21T16:38:18.262Z,12.30
2018-12-21T16:40:46.705Z,12.30
2018-12-21T16:43:14.999Z,12.30
2018-12-21T16:45:43.111Z,12.40
2018-12-21T16:48:11.237Z,12.40
2018-12-21T16:50:39.421Z,12.40
2018-12-21T16:53:07.722Z,12.40
2018-12-21T16:55:35.982Z,12.40
2018-12-21T16:58:04.126Z,12.40
2018-12-21T17:00:32.325Z,12.40
2018-12-21T17:03:00.442Z,12.30
2018-12-21T17:05:28.681Z,12.30
2018-12-21T17:07:56.811Z,12.40
2018-12-21T17:10:25.244Z,12.30
2018-12-21T17:12:53.508Z,12.30
2018-12-21T17:15:21.702Z,12.30
2018-12-21T17:17:49.905Z,12.30
2018-12-21T17:20:18.104Z,12.30
2018-12-21T17:22:46.305Z,12.30
2018-12-21T17:25:14.966Z,12.40
2018-12-21T17:27:43.399Z,12.40
2018-12-21T17:30:12.457Z,12.60
2018-12-21T17:32:40.626Z,12.50
2018-12-21T17:35:09.731Z,12.40
2018-12-21T17:37:39.049Z,12.30
2018-12-21T17:40:10.046Z,12.30
2018-12-21T17:42:38.251Z,12.30
2018-12-21T17:45:08.566Z,12.20
2018-12-21T17:47:36.789Z,12.20
2018-12-21T17:50:06.539Z,12.20
2018-12-21T17:52:34.673Z,12.10
2018-12-21T17:55:02.985Z,12.20
2018-12-21T17:57:31.118Z,12.20
2018-12-21T17:59:59.326Z,12.20
2018-12-21T18:02:27.944Z,12.30
2018-12-21T18:04:56.203Z,12.20
2018-12-21T18:07:24.390Z,12.20
2018-12-21T18:09:52.545Z,12.20
2018-12-21T18:12:20.718Z,12.20
2018-12-21T18:14:48.965Z,12.20
2018-12-21T18:17:17.166Z,12.20
2018-12-21T18:19:45.378Z,12.30
2018-12-21T18:22:17.464Z,12.30
2018-12-21T18:24:48.383Z,12.30
2018-12-21T18:27:16.490Z,12.30
2018-12-21T18:29:44.902Z,12.20
2018-12-21T18:32:30.891Z,12.20
2018-12-21T18:35:03.371Z,12.30
2018-12-21T18:37:32.526Z,12.20
2018-12-21T18:40:00.965Z,12.20
2018-12-21T18:42:29.137Z,12.20
2018-12-21T18:44:57.373Z,12.10
2018-12-21T18:47:25.598Z,12.10
2018-12-21T18:49:53.845Z,12.00
2018-12-21T18:52:21.998Z,12.00
2018-12-21T18:54:50.121Z,12.00
2018-12-21T18:57:19.997Z,12.10
2018-12-21T18:59:48.185Z,12.10
2018-12-21T19:02:16.694Z,12.00
2018-12-21T19:04:44.871Z,12.00
2018-12-21T19:07:13.093Z,11.90
2018-12-21T19:09:41.219Z,12.00
2018-12-21T19:12:09.441Z,11.90
2018-12-21T19:14:37.693Z,11.80
2018-12-21T19:17:05.946Z,11.70
2018-12-21T19:19:34.129Z,11.70
2018-12-21T19:22:02.342Z,11.60
2018-12-21T19:24:30.754Z,11.50
2018-12-21T19:26:58.986Z,11.40
2018-12-21T19:29:27.105Z,11.40
2018-12-21T19:31:55.262Z,11.30
2018-12-21T19:34:23.561Z,11.30
2018-12-21T19:36:51.719Z,11.30
2018-12-21T19:39:19.829Z,11.30
2018-12-21T19:41:47.996Z,11.20
2018-12-21T19:44:16.088Z,11.20
2018-12-21T19:46:44.301Z,11.10
2018-12-21T19:49:12.467Z,11.00
2018-12-21T19:51:40.692Z,10.90
2018-12-21T19:54:10.930Z,10.90
2018-12-21T19:56:45.655Z,10.80
2018-12-21T19:59:13.887Z,10.90
2018-12-21T20:01:41.993Z,10.80
2018-12-21T20:04:10.256Z,10.80
2018-12-21T20:06:38.665Z,10.90
2018-12-21T20:09:08.332Z,10.90
2018-12-21T20:11:36.640Z,10.80
2018-12-21T20:14:04.871Z,10.80
2018-12-21T20:16:32.974Z,10.80
2018-12-21T20:19:01.135Z,10.70
2018-12-21T20:21:29.372Z,10.80
2018-12-21T20:23:57.634Z,10.90
2018-12-21T20:26:26.848Z,10.80
2018-12-21T20:28:55.077Z,10.80
2018-12-21T20:31:23.679Z,10.80
2018-12-21T20:33:51.978Z,10.80
2018-12-21T20:36:20.219Z,10.80
2018-12-21T20:38:48.758Z,10.80
2018-12-21T20:41:16.899Z,10.90
2018-12-21T20:43:45.057Z,10.90
2018-12-21T20:46:13.365Z,10.90
2018-12-21T20:48:41.561Z,10.90
2018-12-21T20:51:09.895Z,10.80
2018-12-21T20:53:38.103Z,10.80
2018-12-21T20:56:06.339Z,10.70
2018-12-21T20:58:44.973Z,10.60
2018-12-21T21:01:13.443Z,10.50
2018-12-21T21:03:41.630Z,10.50
2018-12-21T21:06:09.811Z,10.60
2018-12-21T21:08:38.634Z,10.60
2018-12-21T21:11:06.887Z,10.60
2018-12-21T21:13:35.010Z,10.70
2018-12-21T21:16:03.361Z,10.70
2018-12-21T21:18:32.108Z,10.70
2018-12-21T21:21:00.299Z,10.70
2018-12-21T21:23:28.522Z,10.70
2018-12-21T21:25:56.984Z,10.70
2018-12-21T21:28:25.086Z,10.70
2018-12-21T21:30:53.825Z,10.60
2018-12-21T21:33:22.002Z,10.50
2018-12-21T21:35:50.183Z,10.50
2018-12-21T21:38:18.357Z,10.30
2018-12-21T21:40:46.604Z,10.30
2018-12-21T21:43:17.285Z,10.30
2018-12-21T21:45:45.501Z,10.30
2018-12-21T21:48:13.684Z,10.10
2018-12-21T21:50:42.393Z,10.30
2018-12-21T21:53:10.531Z,10.30
2018-12-21T21:55:38.771Z,10.20
2018-12-21T21:58:06.906Z,10.20
2018-12-21T22:00:35.073Z,10.30
2018-12-21T22:03:03.250Z,10.30
2018-12-21T22:05:31.423Z,10.20
2018-12-21T22:07:59.529Z,10.20
2018-12-21T22:10:27.701Z,10.20
2018-12-21T22:12:55.998Z,10.20
2018-12-21T22:15:24.282Z,10.20
2018-12-21T22:17:52.540Z,10.30
2018-12-21T22:20:20.625Z,10.30
2018-12-21T22:22:48.788Z,10.20
2018-12-21T22:25:16.953Z,10.20
2018-12-21T22:27:48.059Z,10.20
2018-12-21T22:30:15.437Z,10.10
2018-12-21T22:32:44.155Z,10.00
2018-12-21T22:35:12.346Z,10.10
2018-12-21T22:37:40.447Z,10.10
2018-12-21T22:40:08.670Z,10.20
2018-12-21T22:42:36.835Z,10.10
2018-12-21T22:45:06.783Z,10.10
2018-12-21T22:47:35.034Z,10.10
2018-12-21T22:50:03.334Z,10.10
2018-12-21T22:52:32.152Z,10.10
2018-12-21T22:55:03.424Z,10.10
2018-12-21T22:57:32.327Z,10.10
2018-12-21T23:00:00.567Z,9.90
2018-12-21T23:02:29.297Z,10.00
2018-12-21T23:04:57.643Z,10.00
2018-12-21T23:07:26.011Z,9.90
2018-12-21T23:09:54.174Z,9.90
2018-12-21T23:12:22.445Z,10.00
2018-12-21T23:14:50.704Z,10.00
2018-12-21T23:17:19.600Z,10.00
2018-12-21T23:19:51.517Z,9.90
2018-12-21T23:22:19.813Z,9.90
2018-12-21T23:24:48.080Z,9.70
2018-12-21T23:27:16.269Z,9.70
2018-12-21T23:29:44.455Z,9.70
2018-12-21T23:32:12.710Z,9.60
2018-12-21T23:34:40.992Z,9.70
2018-12-21T23:37:09.187Z,9.80
2018-12-21T23:39:37.544Z,9.80
2018-12-21T23:42:06.638Z,9.90
2018-12-21T23:44:34.864Z,9.90
2018-12-21T23:47:03.182Z,9.90
2018-12-21T23:49:31.438Z,9.90
2018-12-21T23:51:59.678Z,10.00
2018-12-21T23:54:27.959Z,10.00
2018-12-21T23:56:56.149Z,10.00
2018-12-21T23:59:24.342Z,10.10
